createdAt,value
2023-11-17T00:00:15.004Z,101600.44
2023-11-17T00:02:42.474Z,101601.78
2023-11-17T00:05:10.130Z,101597.06
2023-11-17T00:07:37.475Z,101599.31
2023-11-17T00:10:08.284Z,101594.31
2023-11-17T00:12:36.597Z,101603.13
2023-11-17T00:15:03.786Z,101599.81
2023-11-17T00:17:30.733Z,101604.22
2023-11-17T00:19:57.924Z,101599.81
2023-11-17T00:22:24.909Z,101598.94
2023-11-17T00:24:52.158Z,101608.00
2023-11-17T00:27:19.475Z,101614.16
2023-11-17T00:29:46.671Z,101611.09
2023-11-17T00:32:13.542Z,101616.59
2023-11-17T00:34:40.629Z,101614.06
2023-11-17T00:37:11.419Z,101618.88
2023-11-17T00:39:39.404Z,101618.34
2023-11-17T00:42:09.468Z,101618.44
2023-11-17T00:44:36.872Z,101627.63
2023-11-17T00:47:05.954Z,101632.56
2023-11-17T00:49:35.017Z,101629.19
2023-11-17T00:52:03.348Z,101641.06
2023-11-17T00:54:32.495Z,101637.38
2023-11-17T00:56:59.538Z,101636.31
2023-11-17T00:59:26.434Z,101641.56
2023-11-17T01:01:53.696Z,101643.09
2023-11-17T01:04:21.370Z,101650.84
2023-11-17T01:06:55.729Z,101647.28
2023-11-17T01:09:23.928Z,101650.06
2023-11-17T01:11:51.076Z,101662.53
2023-11-17T01:14:18.269Z,101657.81
2023-11-17T01:16:49.979Z,101660.28
2023-11-17T01:19:17.059Z,101662.94
2023-11-17T01:21:43.947Z,101663.66
2023-11-17T01:24:11.029Z,101662.34
2023-11-17T01:26:37.931Z,101663.75
2023-11-17T01:29:06.299Z,101663.53
2023-11-17T01:31:33.527Z,101668.25
2023-11-17T01:34:00.970Z,101668.56
2023-11-17T01:36:29.790Z,101661.16
2023-11-17T01:38:56.917Z,101657.81
2023-11-17T01:41:25.353Z,101665.28
2023-11-17T01:43:52.714Z,101663.66
2023-11-17T01:46:22.031Z,101667.75
2023-11-17T01:48:49.491Z,101665.06
2023-11-17T01:51:16.538Z,101664.66
2023-11-17T01:53:43.732Z,101674.69
2023-11-17T01:56:10.884Z,101668.13
2023-11-17T01:58:37.796Z,101676.13
2023-11-17T02:01:09.554Z,101675.50
2023-11-17T02:03:41.678Z,101681.31
2023-11-17T02:06:42.269Z,101689.81
2023-11-17T02:09:23.188Z,101682.66
2023-11-17T02:12:16.067Z,101679.69
2023-11-17T02:14:48.449Z,101684.63
2023-11-17T02:17:17.095Z,101683.19
2023-11-17T02:19:45.188Z,101686.03
2023-11-17T02:22:22.718Z,101684.22
2023-11-17T02:25:12.137Z,101686.25
2023-11-17T02:28:13.561Z,101680.22
2023-11-17T02:30:43.444Z,101686.94
2023-11-17T02:33:12.439Z,101682.84
2023-11-17T02:35:39.642Z,101691.94
2023-11-17T02:38:06.803Z,101690.84
2023-11-17T02:40:34.335Z,101692.78
2023-11-17T02:43:01.473Z,101696.28
2023-11-17T02:45:29.238Z,101693.59
2023-11-17T02:48:00.125Z,101692.56
2023-11-17T02:50:33.213Z,101689.88
2023-11-17T02:53:12.008Z,101679.75
2023-11-17T02:55:39.534Z,101683.13
2023-11-17T02:58:06.808Z,101683.63
2023-11-17T03:00:33.733Z,101680.88
2023-11-17T03:03:00.888Z,101691.91
2023-11-17T03:05:28.395Z,101679.44
2023-11-17T03:07:55.382Z,101676.69
2023-11-17T03:10:24.006Z,101673.94
2023-11-17T03:12:56.812Z,101680.78
2023-11-17T03:15:25.575Z,101676.69
2023-11-17T03:17:53.330Z,101686.31
2023-11-17T03:20:20.707Z,101684.00
2023-11-17T03:22:48.188Z,101690.22
2023-11-17T03:25:16.951Z,101685.22
2023-11-17T03:27:44.879Z,101694.63
2023-11-17T03:30:12.700Z,101692.78
2023-11-17T03:32:40.239Z,101693.59
2023-11-17T03:35:07.708Z,101695.22
2023-11-17T03:37:35.530Z,101692.16
2023-11-17T03:40:12.716Z,101688.69
2023-11-17T03:42:41.829Z,101692.66
2023-11-17T03:45:09.748Z,101693.56
2023-11-17T03:47:36.976Z,101686.72
2023-11-17T03:50:04.723Z,101696.09
2023-11-17T03:52:34.572Z,101695.91
2023-11-17T03:55:01.871Z,101695.50
2023-11-17T03:57:29.524Z,101700.00
2023-11-17T04:00:00.989Z,101698.34
2023-11-17T04:02:29.542Z,101689.56
2023-11-17T04:04:57.150Z,101711.84
2023-11-17T04:07:24.690Z,101709.06
2023-11-17T04:09:52.136Z,101703.34
2023-11-17T04:12:19.202Z,101707.81
2023-11-17T04:14:47.136Z,101719.47
2023-11-17T04:17:14.659Z,101719.59
2023-11-17T04:19:43.333Z,101721.25
2023-11-17T04:22:11.293Z,101714.16
2023-11-17T04:24:38.680Z,101716.78
2023-11-17T04:27:08.122Z,101721.44
2023-11-17T04:29:34.936Z,101718.59
2023-11-17T04:32:02.040Z,101712.91
2023-11-17T04:34:28.911Z,101720.78
2023-11-17T04:36:57.335Z,101723.31
2023-11-17T04:39:25.816Z,101721.28
2023-11-17T04:41:52.825Z,101720.19
2023-11-17T04:44:20.260Z,101716.09
2023-11-17T04:46:49.299Z,101729.25
2023-11-17T04:49:16.415Z,101727.22
2023-11-17T04:51:49.868Z,101722.03
2023-11-17T04:54:16.892Z,101716.88
2023-11-17T04:56:44.178Z,101730.97
2023-11-17T04:59:14.319Z,101734.66
2023-11-17T05:01:41.607Z,101730.75
2023-11-17T05:04:08.952Z,101727.88
2023-11-17T05:06:37.721Z,101735.91
2023-11-17T05:09:11.664Z,101738.09
2023-11-17T05:11:39.601Z,101739.34
2023-11-17T05:14:06.933Z,101738.28
2023-11-17T05:16:38.553Z,101733.41
2023-11-17T05:19:05.857Z,101739.19
2023-11-17T05:21:34.004Z,101741.44
2023-11-17T05:24:01.882Z,101741.19
2023-11-17T05:26:28.926Z,101748.28
2023-11-17T05:28:56.103Z,101750.81
2023-11-17T05:31:23.162Z,101754.47
2023-11-17T05:33:50.306Z,101757.53
2023-11-17T05:36:17.360Z,101764.91
2023-11-17T05:38:45.191Z,101768.50
2023-11-17T05:41:12.350Z,101771.19
2023-11-17T05:43:39.364Z,101775.56
2023-11-17T05:46:07.103Z,101771.47
2023-11-17T05:48:34.206Z,101775.03
2023-11-17T05:51:07.226Z,101774.47
2023-11-17T05:53:35.673Z,101769.47
2023-11-17T05:56:03.557Z,101769.97
2023-11-17T05:58:30.486Z,101780.13
2023-11-17T06:00:57.473Z,101780.16
2023-11-17T06:03:24.465Z,101777.56
2023-11-17T06:05:51.506Z,101778.91
2023-11-17T06:08:18.368Z,101779.41
2023-11-17T06:10:45.424Z,101781.06
2023-11-17T06:13:15.817Z,101784.84
2023-11-17T06:15:43.016Z,101788.16
2023-11-17T06:18:10.004Z,101789.16
2023-11-17T06:20:37.153Z,101798.28
2023-11-17T06:23:04.077Z,101794.91
2023-11-17T06:25:33.722Z,101796.34
2023-11-17T06:28:00.688Z,101798.66
2023-11-17T06:30:27.787Z,101801.50
2023-11-17T06:32:54.804Z,101802.91
2023-11-17T06:35:21.791Z,101793.84
2023-11-17T06:37:49.321Z,101805.66
2023-11-17T06:40:17.221Z,101793.84
2023-11-17T06:42:44.801Z,101792.19
2023-11-17T06:45:14.573Z,101799.28
2023-11-17T06:47:47.211Z,101803.44
2023-11-17T06:50:14.358Z,101805.38
2023-11-17T06:52:43.078Z,101800.97
2023-11-17T06:55:10.900Z,101805.97
2023-11-17T06:57:38.103Z,101810.16
2023-11-17T07:00:11.469Z,101813.50
2023-11-17T07:02:38.495Z,101810.59
2023-11-17T07:05:08.499Z,101818.03
2023-11-17T07:07:36.519Z,101809.63
2023-11-17T07:10:03.543Z,101807.84
2023-11-17T07:12:30.724Z,101812.59
2023-11-17T07:14:58.977Z,101820.69
2023-11-17T07:17:26.387Z,101820.97
2023-11-17T07:19:53.428Z,101823.22
2023-11-17T07:22:20.556Z,101823.53
2023-11-17T07:24:47.467Z,101827.09
2023-11-17T07:27:14.592Z,101825.97
2023-11-17T07:29:42.298Z,101831.41
2023-11-17T07:32:09.352Z,101828.56
2023-11-17T07:34:36.264Z,101832.31
2023-11-17T07:37:04.812Z,101836.84
2023-11-17T07:39:31.687Z,101831.75
2023-11-17T07:41:58.775Z,101829.13
2023-11-17T07:44:30.068Z,101831.22
2023-11-17T07:46:59.473Z,101836.03
2023-11-17T07:49:26.972Z,101834.53
2023-11-17T07:51:54.800Z,101839.97
2023-11-17T07:54:26.324Z,101841.53
2023-11-17T07:56:53.577Z,101840.59
2023-11-17T07:59:23.183Z,101839.38
2023-11-17T08:01:50.949Z,101843.69
2023-11-17T08:04:19.095Z,101829.75
2023-11-17T08:06:46.789Z,101836.84
2023-11-17T08:09:14.158Z,101835.31
2023-11-17T08:11:41.783Z,101837.69
2023-11-17T08:14:10.027Z,101831.22
2023-11-17T08:16:38.353Z,101843.84
2023-11-17T08:19:18.268Z,101837.38
2023-11-17T08:21:54.733Z,101826.81
2023-11-17T08:24:23.983Z,101822.09
2023-11-17T08:26:52.769Z,101830.81
2023-11-17T08:29:22.916Z,101821.38
2023-11-17T08:31:51.655Z,101817.28
2023-11-17T08:34:18.955Z,101819.94
2023-11-17T08:36:46.175Z,101812.78
2023-11-17T08:39:27.329Z,101811.66
2023-11-17T08:41:56.629Z,101816.47
2023-11-17T08:44:24.889Z,101820.22
2023-11-17T08:46:53.041Z,101808.94
2023-11-17T08:49:20.310Z,101817.25
2023-11-17T08:51:49.988Z,101810.34
2023-11-17T08:54:19.185Z,101811.69
2023-11-17T08:56:49.683Z,101805.53
2023-11-17T08:59:16.883Z,101815.69
2023-11-17T09:01:43.923Z,101806.66
2023-11-17T09:04:11.177Z,101803.25
2023-11-17T09:06:38.154Z,101806.41
2023-11-17T09:09:16.460Z,101806.28
2023-11-17T09:11:51.561Z,101802.63
2023-11-17T09:14:18.893Z,101810.81
2023-11-17T09:16:49.937Z,101804.03
2023-11-17T09:19:18.140Z,101809.00
2023-11-17T09:21:45.555Z,101817.81
2023-11-17T09:24:12.538Z,101813.88
2023-11-17T09:26:39.605Z,101808.78
2023-11-17T09:29:06.480Z,101812.00
2023-11-17T09:31:33.606Z,101813.00
2023-11-17T09:34:00.586Z,101816.66
2023-11-17T09:36:27.656Z,101827.97
2023-11-17T09:38:55.036Z,101827.69
2023-11-17T09:41:24.570Z,101827.88
2023-11-17T09:43:59.453Z,101832.00
2023-11-17T09:46:29.333Z,101829.72
2023-11-17T09:49:03.720Z,101838.72
2023-11-17T09:51:33.847Z,101847.69
2023-11-17T09:54:03.898Z,101848.72
2023-11-17T09:56:31.369Z,101853.81
2023-11-17T09:58:59.304Z,101852.22
2023-11-17T10:01:30.344Z,101853.03
2023-11-17T10:03:59.520Z,101855.38
2023-11-17T10:06:28.811Z,101856.53
2023-11-17T10:08:56.893Z,101858.81
2023-11-17T10:11:24.361Z,101853.41
2023-11-17T10:13:52.926Z,101857.34
2023-11-17T10:16:21.723Z,101862.41
2023-11-17T10:18:48.851Z,101862.09
2023-11-17T10:21:49.681Z,101870.59
2023-11-17T10:24:18.074Z,101866.50
2023-11-17T10:26:48.732Z,101869.31
2023-11-17T10:29:15.673Z,101870.47
2023-11-17T10:31:44.769Z,101874.09
2023-11-17T10:34:15.458Z,101877.50
2023-11-17T10:36:58.662Z,101883.38
2023-11-17T10:39:26.078Z,101878.50
2023-11-17T10:41:53.833Z,101892.56
2023-11-17T10:44:33.270Z,101901.22
2023-11-17T10:47:06.135Z,101897.63
2023-11-17T10:49:34.099Z,101893.72
2023-11-17T10:52:01.139Z,101897.66
2023-11-17T10:54:31.223Z,101907.81
2023-11-17T10:57:10.236Z,101914.34
2023-11-17T10:59:48.304Z,101916.97
2023-11-17T11:02:21.212Z,101913.19
2023-11-17T11:04:49.907Z,101916.47
2023-11-17T11:07:16.987Z,101927.44
2023-11-17T11:09:43.895Z,101935.94
2023-11-17T11:12:14.838Z,101929.22
2023-11-17T11:14:42.702Z,101941.16
2023-11-17T11:17:13.552Z,101952.47
2023-11-17T11:19:52.801Z,101952.94
2023-11-17T11:22:30.330Z,101959.00
2023-11-17T11:24:58.257Z,101964.06
2023-11-17T11:27:26.848Z,101963.09
2023-11-17T11:29:54.201Z,101966.22
2023-11-17T11:32:22.115Z,101952.47
2023-11-17T11:34:49.667Z,101962.59
2023-11-17T11:37:18.617Z,101965.38
2023-11-17T11:39:47.160Z,101975.84
2023-11-17T11:42:15.275Z,101978.28
2023-11-17T11:44:42.832Z,101972.06
2023-11-17T11:47:10.219Z,101972.56
2023-11-17T11:49:37.576Z,101972.56
2023-11-17T11:52:13.364Z,101969.94
2023-11-17T11:54:42.296Z,101972.03
2023-11-17T11:57:26.177Z,101969.78
2023-11-17T11:59:53.524Z,101981.91
2023-11-17T12:02:20.629Z,101973.25
2023-11-17T12:04:54.473Z,101973.38
2023-11-17T12:07:34.083Z,101977.66
2023-11-17T12:10:02.538Z,101969.97
2023-11-17T12:12:29.742Z,101969.63
2023-11-17T12:14:59.021Z,101982.72
2023-11-17T12:17:32.544Z,101982.22
2023-11-17T12:20:30.463Z,102005.94
2023-11-17T12:23:05.078Z,102004.31
2023-11-17T12:25:32.447Z,102013.00
2023-11-17T12:28:00.552Z,102024.31
2023-11-17T12:30:28.589Z,102023.06
2023-11-17T12:32:58.025Z,102029.09
2023-11-17T12:35:28.823Z,102035.00
2023-11-17T12:37:56.345Z,102032.16
2023-11-17T12:40:24.170Z,102020.38
2023-11-17T12:42:52.450Z,102031.63
2023-11-17T12:45:21.419Z,102048.53
2023-11-17T12:47:48.792Z,102054.13
2023-11-17T12:50:15.957Z,102044.81
2023-11-17T12:53:07.568Z,102053.41
2023-11-17T12:55:49.041Z,102046.00
2023-11-17T12:58:16.787Z,102043.56
2023-11-17T13:00:47.730Z,102044.19
2023-11-17T13:03:15.251Z,102054.06
2023-11-17T13:05:42.510Z,102038.56
2023-11-17T13:08:10.220Z,102041.72
2023-11-17T13:10:37.609Z,102041.81
2023-11-17T13:13:07.769Z,102041.22
2023-11-17T13:15:35.041Z,102057.16
2023-11-17T13:18:02.097Z,102055.84
2023-11-17T13:20:31.939Z,102049.81
2023-11-17T13:22:58.936Z,102054.22
2023-11-17T13:25:27.723Z,102049.81
2023-11-17T13:27:55.242Z,102049.97
2023-11-17T13:30:22.898Z,102056.22
2023-11-17T13:32:52.315Z,102046.88
2023-11-17T13:35:20.839Z,102063.91
2023-11-17T13:37:52.559Z,102059.00
2023-11-17T13:40:43.262Z,102061.28
2023-11-17T13:43:12.031Z,102057.84
2023-11-17T13:45:43.944Z,102051.47
2023-11-17T13:48:13.857Z,102056.03
2023-11-17T13:50:50.636Z,102055.38
2023-11-17T13:53:18.489Z,102051.16
2023-11-17T13:55:47.669Z,102055.03
2023-11-17T13:58:16.033Z,102056.69
2023-11-17T14:00:47.550Z,102057.84
2023-11-17T14:03:15.054Z,102062.44
2023-11-17T14:05:43.661Z,102065.88
2023-11-17T14:08:13.673Z,102055.53
2023-11-17T14:10:40.702Z,102059.47
2023-11-17T14:13:07.713Z,102059.13
2023-11-17T14:15:43.318Z,102062.25
2023-11-17T14:18:18.799Z,102074.53
2023-11-17T14:20:47.479Z,102070.75
2023-11-17T14:23:15.593Z,102071.06
2023-11-17T14:25:43.353Z,102077.78
2023-11-17T14:28:10.384Z,102077.94
2023-11-17T14:30:37.540Z,102065.84
2023-11-17T14:33:06.480Z,102081.69
2023-11-17T14:35:34.083Z,102077.41
2023-11-17T14:38:01.432Z,102093.78
2023-11-17T14:40:29.155Z,102103.25
2023-11-17T14:43:00.270Z,102094.44
2023-11-17T14:45:28.052Z,102098.69
2023-11-17T14:47:55.452Z,102098.81
2023-11-17T14:50:22.674Z,102102.69
2023-11-17T14:52:49.745Z,102098.47
2023-11-17T14:55:23.873Z,102121.72
2023-11-17T14:57:51.297Z,102113.53
2023-11-17T15:00:24.753Z,102105.72
2023-11-17T15:02:53.891Z,102112.25
2023-11-17T15:05:21.465Z,102120.78
2023-11-17T15:07:49.131Z,102116.34
2023-11-17T15:10:17.890Z,102113.72
2023-11-17T15:12:46.340Z,102112.59
2023-11-17T15:15:25.957Z,102124.78
2023-11-17T15:17:55.868Z,102129.50
2023-11-17T15:20:24.518Z,102110.28
2023-11-17T15:22:53.075Z,102116.94
2023-11-17T15:25:25.733Z,102123.94
2023-11-17T15:27:56.735Z,102122.84
2023-11-17T15:30:28.147Z,102121.94
2023-11-17T15:32:55.492Z,102122.66
2023-11-17T15:35:25.030Z,102133.25
2023-11-17T15:37:52.175Z,102130.97
2023-11-17T15:40:23.177Z,102130.03
2023-11-17T15:42:50.610Z,102136.88
2023-11-17T15:45:24.277Z,102124.69
2023-11-17T15:47:52.065Z,102139.19
2023-11-17T15:50:20.253Z,102138.19
2023-11-17T15:52:47.872Z,102131.22
2023-11-17T15:55:18.485Z,102123.75
2023-11-17T15:57:46.774Z,102131.75
2023-11-17T16:00:24.803Z,102139.66
2023-11-17T16:02:53.358Z,102130.53
2023-11-17T16:05:22.914Z,102138.41
2023-11-17T16:07:52.777Z,102138.41
2023-11-17T16:10:24.947Z,102141.59
2023-11-17T16:12:55.105Z,102148.84
2023-11-17T16:15:23.123Z,102147.50
2023-11-17T16:17:57.905Z,102143.75
2023-11-17T16:20:32.827Z,102148.44
2023-11-17T16:23:01.699Z,102128.31
2023-11-17T16:25:30.500Z,102148.88
2023-11-17T16:27:59.540Z,102155.53
2023-11-17T16:30:26.648Z,102141.19
2023-11-17T16:32:56.346Z,102152.63
2023-11-17T16:35:28.357Z,102144.88
2023-11-17T16:37:56.152Z,102157.97
2023-11-17T16:40:28.797Z,102157.72
2023-11-17T16:43:03.847Z,102152.91
2023-11-17T16:45:35.091Z,102147.41
2023-11-17T16:48:05.089Z,102143.78
2023-11-17T16:50:40.573Z,102149.00
2023-11-17T16:53:10.446Z,102150.13
2023-11-17T16:55:38.306Z,102149.47
2023-11-17T16:58:06.650Z,102148.41
2023-11-17T17:00:36.845Z,102138.63
2023-11-17T17:03:06.101Z,102144.16
2023-11-17T17:05:34.896Z,102139.22
2023-11-17T17:08:04.399Z,102144.16
2023-11-17T17:10:35.680Z,102132.34
2023-11-17T17:13:02.897Z,102146.91
2023-11-17T17:15:32.839Z,102140.00
2023-11-17T17:18:06.147Z,102144.50
2023-11-17T17:20:39.436Z,102144.19
2023-11-17T17:23:08.498Z,102150.94
2023-11-17T17:25:41.063Z,102157.28
2023-11-17T17:28:12.782Z,102158.38
2023-11-17T17:30:42.250Z,102166.81
2023-11-17T17:33:11.773Z,102171.00
2023-11-17T17:35:44.016Z,102172.53
2023-11-17T17:38:13.565Z,102163.03
2023-11-17T17:40:42.250Z,102169.69
2023-11-17T17:43:11.419Z,102176.69
2023-11-17T17:45:40.639Z,102179.44
2023-11-17T17:48:09.802Z,102183.25
2023-11-17T17:50:38.315Z,102186.25
2023-11-17T17:53:05.748Z,102180.56
2023-11-17T17:55:32.808Z,102190.50
2023-11-17T17:58:00.017Z,102177.50
2023-11-17T18:00:29.285Z,102175.88
2023-11-17T18:03:01.558Z,102176.13
2023-11-17T18:05:30.755Z,102183.00
2023-11-17T18:07:57.918Z,102175.72
2023-11-17T18:10:26.325Z,102178.25
2023-11-17T18:12:53.844Z,102176.25
2023-11-17T18:15:23.342Z,102174.97
2023-11-17T18:17:53.208Z,102171.84
2023-11-17T18:20:24.895Z,102176.19
2023-11-17T18:22:54.929Z,102174.94
2023-11-17T18:25:22.907Z,102181.91
2023-11-17T18:27:51.038Z,102185.09
2023-11-17T18:30:19.709Z,102184.41
2023-11-17T18:32:47.219Z,102186.41
2023-11-17T18:35:16.719Z,102181.63
2023-11-17T18:37:50.733Z,102191.91
2023-11-17T18:40:26.847Z,102187.25
2023-11-17T18:42:57.187Z,102183.97
2023-11-17T18:45:24.823Z,102186.50
2023-11-17T18:47:54.372Z,102192.09
2023-11-17T18:50:22.336Z,102191.53
2023-11-17T18:52:50.151Z,102189.72
2023-11-17T18:55:18.858Z,102200.03
2023-11-17T18:57:46.525Z,102196.69
2023-11-17T19:00:21.811Z,102196.28
2023-11-17T19:02:53.540Z,102192.69
2023-11-17T19:05:21.338Z,102198.66
2023-11-17T19:07:50.012Z,102198.72
2023-11-17T19:10:21.410Z,102197.78
2023-11-17T19:12:49.847Z,102193.91
2023-11-17T19:15:20.829Z,102195.59
2023-11-17T19:17:48.033Z,102197.53
2023-11-17T19:20:16.874Z,102215.72
2023-11-17T19:22:45.707Z,102213.78
2023-11-17T19:25:13.121Z,102214.41
2023-11-17T19:27:41.278Z,102220.22
2023-11-17T19:30:16.255Z,102220.53
2023-11-17T19:32:49.241Z,102216.94
2023-11-17T19:35:20.537Z,102221.06
2023-11-17T19:37:48.304Z,102214.13
2023-11-17T19:40:16.359Z,102216.88
2023-11-17T19:42:45.271Z,102218.28
2023-11-17T19:45:17.474Z,102210.59
2023-11-17T19:47:45.912Z,102218.34
2023-11-17T19:50:15.734Z,102220.66
2023-11-17T19:52:48.407Z,102227.28
2023-11-17T19:55:16.613Z,102221.31
2023-11-17T19:57:48.680Z,102229.53
2023-11-17T20:00:24.614Z,102237.00
2023-11-17T20:02:54.212Z,102241.75
2023-11-17T20:05:23.841Z,102242.34
2023-11-17T20:07:51.789Z,102236.34
2023-11-17T20:10:19.193Z,102234.16
2023-11-17T20:12:46.648Z,102235.56
2023-11-17T20:15:18.741Z,102233.94
2023-11-17T20:17:56.266Z,102241.72
2023-11-17T20:20:28.851Z,102239.25
2023-11-17T20:22:59.625Z,102239.50
2023-11-17T20:25:27.834Z,102234.75
2023-11-17T20:27:57.097Z,102245.81
2023-11-17T20:30:26.701Z,102244.69
2023-11-17T20:32:55.766Z,102237.75
2023-11-17T20:35:25.119Z,102243.84
2023-11-17T20:37:53.802Z,102235.81
2023-11-17T20:40:21.262Z,102242.69
2023-11-17T20:42:52.203Z,102245.69
2023-11-17T20:45:21.951Z,102244.81
2023-11-17T20:47:49.446Z,102235.75
2023-11-17T20:50:18.459Z,102241.53
2023-11-17T20:52:49.692Z,102239.28
2023-11-17T20:55:20.753Z,102247.38
2023-11-17T20:57:48.616Z,102249.44
2023-11-17T21:00:21.501Z,102250.31
2023-11-17T21:02:59.381Z,102250.06
2023-11-17T21:05:28.139Z,102249.53
2023-11-17T21:07:56.524Z,102259.47
2023-11-17T21:10:27.954Z,102260.81
2023-11-17T21:12:56.797Z,102256.66
2023-11-17T21:15:24.865Z,102264.66
2023-11-17T21:17:55.188Z,102271.88
2023-11-17T21:20:22.719Z,102270.53
2023-11-17T21:22:51.156Z,102270.00
2023-11-17T21:25:23.137Z,102265.91
2023-11-17T21:27:51.897Z,102267.28
2023-11-17T21:30:20.266Z,102273.13
2023-11-17T21:32:55.682Z,102264.59
2023-11-17T21:35:23.112Z,102266.53
2023-11-17T21:37:53.513Z,102265.94
2023-11-17T21:40:22.181Z,102277.66
2023-11-17T21:42:50.525Z,102282.88
2023-11-17T21:45:22.570Z,102286.47
2023-11-17T21:47:54.411Z,102292.25
2023-11-17T21:50:22.891Z,102299.41
2023-11-17T21:52:56.939Z,102293.91
2023-11-17T21:55:24.431Z,102292.09
2023-11-17T21:57:51.690Z,102292.84
2023-11-17T22:00:19.884Z,102294.19
2023-11-17T22:02:48.486Z,102302.69
2023-11-17T22:05:17.277Z,102303.81
2023-11-17T22:07:45.323Z,102308.72
2023-11-17T22:10:13.411Z,102304.88
2023-11-17T22:12:41.213Z,102298.28
2023-11-17T22:15:10.120Z,102310.13
2023-11-17T22:17:38.173Z,102312.06
2023-11-17T22:20:07.113Z,102309.03
2023-11-17T22:22:34.947Z,102319.84
2023-11-17T22:25:02.578Z,102315.66
2023-11-17T22:27:29.932Z,102310.44
2023-11-17T22:29:57.359Z,102318.72
2023-11-17T22:32:27.467Z,102316.28
2023-11-17T22:34:54.615Z,102323.94
2023-11-17T22:37:21.626Z,102310.69
2023-11-17T22:39:48.647Z,102312.56
2023-11-17T22:42:15.727Z,102316.44
2023-11-17T22:44:42.867Z,102312.91
2023-11-17T22:47:09.858Z,102322.06
2023-11-17T22:49:38.368Z,102318.72
2023-11-17T22:52:05.992Z,102321.53
2023-11-17T22:54:33.138Z,102321.22
2023-11-17T22:57:00.741Z,102320.13
2023-11-17T22:59:28.489Z,102321.78
2023-11-17T23:01:55.868Z,102325.00
2023-11-17T23:04:22.944Z,102328.03
2023-11-17T23:06:50.293Z,102325.47
2023-11-17T23:09:17.170Z,102326.03
2023-11-17T23:11:45.455Z,102327.22
2023-11-17T23:14:12.590Z,102330.84
2023-11-17T23:16:39.856Z,102333.06
2023-11-17T23:19:17.837Z,102326.72
2023-11-17T23:21:49.165Z,102333.31
2023-11-17T23:24:16.270Z,102331.91
2023-11-17T23:26:43.130Z,102329.97
2023-11-17T23:29:10.113Z,102325.31
2023-11-17T23:31:37.045Z,102322.28
2023-11-17T23:34:04.243Z,102326.13
2023-11-17T23:36:31.210Z,102333.06
2023-11-17T23:38:59.134Z,102333.00
2023-11-17T23:41:26.755Z,102329.44
2023-11-17T23:43:55.329Z,102326.97
2023-11-17T23:46:24.382Z,102319.72
2023-11-17T23:48:51.694Z,102326.34
2023-11-17T23:51:18.581Z,102319.78
2023-11-17T23:53:45.503Z,102318.94
2023-11-17T23:56:13.701Z,102317.84
2023-11-17T23:58:41.044Z,102325.88
